Time;durP1;ratioP1;P1;durP2;ratioP2;P2;SDS_P1;SDS_P2;PMS_P1;PMS_P2;Temp;Humidity;BMP_temperature;BMP_pressure;BME280_temperature;BME280_humidity;BME280_pressure;Samples;Min_cycle;Max_cycle;Signal;HPM_P1;HPM_P2
2023/06/25 00:01:57;;;;;;;6.90;5.28;;;17.00;1.00;;;;;;5042537;28;20037;-75
2023/06/25 00:04:24;;;;;;;6.00;4.80;;;17.00;1.00;;;;;;5047988;28;20025;-81
2023/06/25 00:06:50;;;;;;;6.30;5.25;;;16.90;1.00;;;;;;5041158;28;20059;-76
2023/06/25 00:09:16;;;;;;;8.52;5.18;;;16.80;1.00;;;;;;5047934;28;20029;-76
2023/06/25 00:11:42;;;;;;;6.32;5.03;;;16.80;1.00;;;;;;5041961;28;20044;-75
2023/06/25 00:14:08;;;;;;;8.80;6.00;;;16.80;1.00;;;;;;5044818;28;20048;-76
2023/06/25 00:16:35;;;;;;;7.72;5.50;;;16.80;1.00;;;;;;5051941;28;20048;-76
2023/06/25 00:19:01;;;;;;;6.88;5.35;;;16.80;1.00;;;;;;5056810;28;20021;-75
2023/06/25 00:21:27;;;;;;;6.60;5.25;;;16.80;2.20;;;;;;5032460;28;20045;-76
2023/06/25 00:23:54;;;;;;;8.30;5.25;;;16.70;3.70;;;;;;5049119;28;20403;-76
2023/06/25 00:26:20;;;;;;;5.93;4.65;;;16.70;7.20;;;;;;5048172;28;20037;-76
2023/06/25 00:28:46;;;;;;;9.15;5.25;;;16.70;3.50;;;;;;5051386;28;20472;-76
2023/06/25 00:31:12;;;;;;;5.50;4.55;;;16.70;6.00;;;;;;5049442;28;20379;-75
2023/06/25 00:33:41;;;;;;;7.07;5.05;;;16.70;8.10;;;;;;5049374;28;20045;-74
2023/06/25 00:36:08;;;;;;;7.15;5.45;;;16.50;15.20;;;;;;5043226;28;20368;-76
2023/06/25 00:38:38;;;;;;;6.05;5.07;;;16.40;20.90;;;;;;5046683;28;20044;-75
2023/06/25 00:41:11;;;;;;;7.28;5.53;;;16.30;27.80;;;;;;5044118;28;20479;-76
2023/06/25 00:43:41;;;;;;;6.07;4.85;;;16.30;36.50;;;;;;5031951;28;20049;-74
2023/06/25 00:46:15;;;;;;;7.25;5.95;;;16.20;40.80;;;;;;5061259;28;20379;-74
2023/06/25 00:48:45;;;;;;;7.97;6.18;;;16.30;49.30;;;;;;5049478;28;20032;-75
2023/06/25 00:51:21;;;;;;;8.55;5.22;;;16.20;58.60;;;;;;5045921;28;20041;-74
2023/06/25 00:53:48;;;;;;;9.25;6.18;;;16.20;70.20;;;;;;5045367;28;20049;-80
2023/06/25 00:56:15;;;;;;;7.35;5.75;;;16.10;81.50;;;;;;5035721;28;20044;-74
2023/06/25 00:58:41;;;;;;;6.70;5.82;;;16.00;90.20;;;;;;5047526;28;20040;-76
2023/06/25 01:01:26;;;;;;;7.05;5.50;;;16.00;93.80;;;;;;5051286;28;20374;-76
2023/06/25 01:03:57;;;;;;;8.05;5.63;;;15.90;98.10;;;;;;5064804;28;20052;-75
2023/06/25 01:06:35;;;;;;;;;;;16.00;91.70;;;;;;5063161;28;20060;-74
2023/06/25 01:09:02;;;;;;;8.07;5.70;;;15.90;92.10;;;;;;5048835;28;19909;-74
2023/06/25 01:11:29;;;;;;;7.07;5.63;;;15.90;95.20;;;;;;5049314;28;20054;-74
2023/06/25 01:13:56;;;;;;;6.90;5.45;;;15.80;98.00;;;;;;5050798;28;20037;-76
2023/06/25 01:16:23;;;;;;;7.20;5.70;;;15.80;99.90;;;;;;5044202;28;20037;-76
2023/06/25 01:18:50;;;;;;;6.70;5.82;;;15.70;99.90;;;;;;5043301;28;20033;-82
2023/06/25 01:21:23;;;;;;;7.75;5.90;;;15.70;99.90;;;;;;5043301;28;20037;-76
2023/06/25 01:23:50;;;;;;;6.78;5.50;;;15.60;99.90;;;;;;5050392;28;20037;-85
2023/06/25 01:26:17;;;;;;;7.32;5.82;;;15.50;99.90;;;;;;5049779;28;20037;-76
2023/06/25 01:28:43;;;;;;;6.60;5.72;;;15.50;99.90;;;;;;5049375;28;20037;-75
2023/06/25 01:31:09;;;;;;;9.75;5.93;;;15.40;99.90;;;;;;5047184;28;20021;-74
2023/06/25 01:33:35;;;;;;;8.48;6.18;;;15.40;99.90;;;;;;5028857;28;20048;-76
2023/06/25 01:36:02;;;;;;;10.75;6.63;;;15.40;99.90;;;;;;5041562;28;20033;-76
2023/06/25 01:38:29;;;;;;;7.25;6.05;;;15.40;99.90;;;;;;5061660;28;20037;-77
2023/06/25 01:40:55;;;;;;;8.00;5.82;;;15.30;99.90;;;;;;5047442;28;20033;-79
2023/06/25 01:43:21;;;;;;;9.82;6.47;;;15.40;99.90;;;;;;5049769;28;20033;-76
2023/06/25 01:45:47;;;;;;;9.73;6.57;;;15.40;99.90;;;;;;5027883;28;20480;-76
2023/06/25 01:48:14;;;;;;;10.43;7.25;;;15.40;99.90;;;;;;5044506;28;20037;-76
2023/06/25 01:50:40;;;;;;;8.48;6.80;;;15.40;99.90;;;;;;5044788;28;20032;-75
2023/06/25 01:53:06;;;;;;;7.75;6.50;;;15.30;99.90;;;;;;5037909;28;20041;-75
2023/06/25 01:55:32;;;;;;;9.65;7.35;;;15.30;99.90;;;;;;5043666;28;20502;-75
2023/06/25 01:57:59;;;;;;;9.40;6.32;;;15.30;99.90;;;;;;5048278;28;20049;-75
2023/06/25 02:00:25;;;;;;;7.50;6.18;;;15.20;99.90;;;;;;5062373;28;20037;-76
2023/06/25 02:03:03;;;;;;;8.90;6.53;;;15.20;99.90;;;;;;5047904;28;20037;-76
2023/06/25 02:05:29;;;;;;;7.30;6.25;;;15.20;99.90;;;;;;5047225;28;20035;-78
2023/06/25 02:07:55;;;;;;;10.20;7.03;;;15.10;99.90;;;;;;5048507;28;20029;-82
2023/06/25 02:10:22;;;;;;;8.48;6.15;;;15.10;99.90;;;;;;5047817;28;20037;-76
2023/06/25 02:12:48;;;;;;;8.13;6.85;;;15.10;99.90;;;;;;5049879;28;20115;-77
2023/06/25 02:15:15;;;;;;;6.53;5.72;;;15.10;99.90;;;;;;5047596;28;20416;-76
2023/06/25 02:17:41;;;;;;;7.75;6.63;;;15.10;99.90;;;;;;5047049;28;20028;-77
2023/06/25 02:20:08;;;;;;;9.38;6.95;;;15.20;99.90;;;;;;5046141;28;20045;-74
2023/06/25 02:22:34;;;;;;;7.05;5.82;;;15.10;99.90;;;;;;5026942;28;20052;-74
2023/06/25 02:25:00;;;;;;;8.30;6.57;;;15.10;99.90;;;;;;5018828;28;20029;-75
2023/06/25 02:27:26;;;;;;;7.47;5.95;;;15.10;99.90;;;;;;5038224;28;20460;-74
2023/06/25 02:29:52;;;;;;;6.90;6.13;;;15.00;99.90;;;;;;5042161;28;20051;-85
2023/06/25 02:32:19;;;;;;;10.20;6.78;;;15.10;99.90;;;;;;5043461;28;20060;-76
2023/06/25 02:34:47;;;;;;;8.65;6.90;;;15.00;99.90;;;;;;5038212;28;20052;-78
2023/06/25 02:37:14;;;;;;;7.68;6.40;;;14.90;99.90;;;;;;5050393;28;20072;-75
2023/06/25 02:39:41;;;;;;;8.05;6.15;;;14.80;99.90;;;;;;5048339;28;20040;-75
2023/06/25 02:42:07;;;;;;;10.43;6.90;;;14.70;99.90;;;;;;5045719;28;20048;-77
2023/06/25 02:44:34;;;;;;;7.85;6.72;;;14.80;99.90;;;;;;5046880;28;20049;-80
2023/06/25 02:47:00;;;;;;;8.90;7.18;;;14.70;99.90;;;;;;5028283;28;20041;-76
2023/06/25 02:49:26;;;;;;;8.25;7.38;;;14.60;99.90;;;;;;5045259;28;20373;-76
2023/06/25 02:51:53;;;;;;;9.07;6.55;;;14.70;99.90;;;;;;5060692;28;20047;-75
2023/06/25 02:54:19;;;;;;;8.60;6.45;;;14.70;99.90;;;;;;5046352;28;20429;-75
2023/06/25 02:56:46;;;;;;;8.38;6.07;;;14.70;99.90;;;;;;5047260;28;20036;-74
2023/06/25 02:59:12;;;;;;;7.72;6.63;;;14.70;99.90;;;;;;5049334;28;20056;-74
2023/06/25 03:01:39;;;;;;;12.48;7.50;;;14.70;99.90;;;;;;5047502;28;20045;-74
2023/06/25 03:04:05;;;;;;;9.45;6.85;;;14.70;99.90;;;;;;5047626;28;20037;-74
2023/06/25 03:06:31;;;;;;;7.55;6.60;;;14.70;99.90;;;;;;5035623;28;20068;-76
2023/06/25 03:08:57;;;;;;;8.15;6.80;;;14.70;99.90;;;;;;5047224;28;20036;-77
2023/06/25 03:11:24;;;;;;;9.40;6.78;;;14.70;99.90;;;;;;5044002;28;20048;-75
2023/06/25 03:13:50;;;;;;;12.02;6.93;;;14.70;99.90;;;;;;5045995;28;20056;-75
2023/06/25 03:16:16;;;;;;;8.77;7.07;;;14.70;99.90;;;;;;5044699;28;20044;-74
2023/06/25 03:18:42;;;;;;;8.55;6.95;;;14.60;99.90;;;;;;5060947;28;20045;-74
2023/06/25 03:21:08;;;;;;;12.15;7.55;;;14.50;99.90;;;;;;5046220;28;20033;-74
2023/06/25 03:23:35;;;;;;;9.35;7.90;;;14.50;99.90;;;;;;5045652;28;20384;-76
2023/06/25 03:26:02;;;;;;;9.60;7.30;;;14.50;99.90;;;;;;5011242;28;20415;-74
2023/06/25 03:28:29;;;;;;;10.77;6.85;;;14.50;99.90;;;;;;5067054;28;20045;-75
2023/06/25 03:30:55;;;;;;;11.50;7.63;;;14.40;99.90;;;;;;5046433;28;20468;-81
2023/06/25 03:33:21;;;;;;;10.63;8.20;;;14.40;99.90;;;;;;5046481;28;20057;-77
2023/06/25 03:35:48;;;;;;;13.70;8.32;;;14.40;99.90;;;;;;5061314;28;20037;-77
2023/06/25 03:38:14;;;;;;;11.90;8.07;;;14.50;99.90;;;;;;5048029;28;20379;-75
2023/06/25 03:40:41;;;;;;;9.50;7.65;;;14.40;99.90;;;;;;5062211;28;20049;-78
2023/06/25 03:43:08;;;;;;;11.98;7.78;;;14.40;99.90;;;;;;5035580;28;20468;-74
2023/06/25 03:45:37;;;;;;;10.70;7.57;;;14.30;99.90;;;;;;5065404;28;20045;-75
2023/06/25 03:48:05;;;;;;;10.52;8.38;;;14.40;99.90;;;;;;5053421;28;20052;-74
2023/06/25 03:50:31;;;;;;;10.98;8.15;;;14.50;99.90;;;;;;5035869;28;20041;-77
2023/06/25 03:52:57;;;;;;;9.13;7.60;;;14.60;99.90;;;;;;5051077;28;20059;-80
2023/06/25 03:55:24;;;;;;;9.73;8.18;;;14.60;99.90;;;;;;5034565;28;20037;-76
2023/06/25 03:57:50;;;;;;;9.15;6.78;;;14.70;99.90;;;;;;5036056;28;20040;-76
2023/06/25 04:00:17;;;;;;;9.75;7.60;;;14.80;99.90;;;;;;5061860;28;20283;-76
2023/06/25 04:02:43;;;;;;;11.93;7.20;;;14.90;99.90;;;;;;5047422;28;20052;-77
2023/06/25 04:05:11;;;;;;;9.65;7.15;;;14.90;99.90;;;;;;5064302;28;20041;-76
2023/06/25 04:07:37;;;;;;;9.35;7.47;;;15.00;99.90;;;;;;5032211;28;20045;-76
2023/06/25 04:10:04;;;;;;;9.23;7.78;;;15.00;99.90;;;;;;5049439;28;20136;-76
2023/06/25 04:12:30;;;;;;;9.27;7.50;;;15.00;99.90;;;;;;5032635;28;20053;-75
2023/06/25 04:14:57;;;;;;;9.45;8.02;;;15.10;99.90;;;;;;5030620;28;20052;-76
2023/06/25 04:17:23;;;;;;;9.85;7.80;;;15.20;99.90;;;;;;5050557;28;20053;-75
2023/06/25 04:19:49;;;;;;;9.38;7.15;;;15.30;99.90;;;;;;5049379;28;20020;-77
2023/06/25 04:22:16;;;;;;;9.43;7.20;;;15.80;99.90;;;;;;5049843;28;20029;-75
2023/06/25 04:24:42;;;;;;;9.60;7.18;;;16.40;99.90;;;;;;5065424;28;20103;-77
2023/06/25 04:27:08;;;;;;;7.82;6.90;;;17.00;99.90;;;;;;5061740;28;20048;-75
2023/06/25 04:29:35;;;;;;;8.02;6.50;;;17.50;85.30;;;;;;5048933;28;20486;-75
2023/06/25 04:32:03;;;;;;;8.55;7.07;;;17.80;49.40;;;;;;5043844;28;20032;-83
2023/06/25 04:34:31;;;;;;;8.30;6.40;;;18.00;31.40;;;;;;5014370;28;20048;-75
2023/06/25 04:36:57;;;;;;;7.35;6.35;;;18.50;3.80;;;;;;5047690;28;20044;-77
2023/06/25 04:39:24;;;;;;;8.50;5.97;;;19.20;1.00;;;;;;5048225;28;20041;-76
2023/06/25 04:41:50;;;;;;;6.93;6.18;;;19.40;1.00;;;;;;5062248;28;20044;-79
2023/06/25 04:44:16;;;;;;;6.75;6.07;;;19.40;1.00;;;;;;5044777;28;20045;-76
2023/06/25 04:46:43;;;;;;;10.48;6.07;;;19.90;1.00;;;;;;5032189;28;20049;-76
2023/06/25 04:49:09;;;;;;;8.77;6.30;;;20.70;1.00;;;;;;5030016;28;20479;-75
2023/06/25 04:51:36;;;;;;;8.82;6.25;;;21.50;1.00;;;;;;5043933;28;20492;-77
2023/06/25 04:54:02;;;;;;;7.47;6.35;;;21.40;1.00;;;;;;5046886;28;20037;-77
2023/06/25 04:56:28;;;;;;;8.05;6.78;;;20.80;1.00;;;;;;5046508;28;20457;-76
2023/06/25 04:58:54;;;;;;;9.77;7.45;;;21.00;1.00;;;;;;5044379;28;20067;-76
2023/06/25 05:01:23;;;;;;;8.45;6.97;;;21.90;1.00;;;;;;5040857;28;20317;-77
2023/06/25 05:03:49;;;;;;;12.93;7.00;;;21.80;1.00;;;;;;5048149;28;20423;-77
2023/06/25 05:06:15;;;;;;;8.77;6.82;;;21.50;1.00;;;;;;5048907;28;20044;-79
2023/06/25 05:08:41;;;;;;;10.57;6.85;;;21.70;1.00;;;;;;5052326;28;20030;-77
2023/06/25 05:11:07;;;;;;;8.75;7.05;;;22.10;1.00;;;;;;5062455;28;20048;-77
2023/06/25 05:13:35;;;;;;;7.80;6.78;;;22.00;1.00;;;;;;5050419;28;20037;-80
2023/06/25 05:16:02;;;;;;;8.70;6.43;;;22.00;1.00;;;;;;5048558;28;20524;-86
2023/06/25 05:18:29;;;;;;;8.52;6.35;;;22.60;1.00;;;;;;5047869;28;20432;-77
2023/06/25 05:20:55;;;;;;;8.02;6.70;;;23.20;99.90;;;;;;5049870;28;20029;-77
2023/06/25 05:23:24;;;;;;;9.82;7.13;;;23.20;99.90;;;;;;5046079;28;20284;-77
2023/06/25 05:25:50;;;;;;;7.45;6.45;;;23.00;99.90;;;;;;5048661;28;20042;-77
2023/06/25 05:28:16;;;;;;;9.77;6.43;;;23.30;99.90;;;;;;5029660;28;20041;-77
2023/06/25 05:30:42;;;;;;;7.10;6.18;;;23.00;99.90;;;;;;5049653;28;20029;-77
2023/06/25 05:33:08;;;;;;;6.55;5.63;;;23.00;99.90;;;;;;5047224;28;20478;-78
2023/06/25 05:35:34;;;;;;;6.03;5.43;;;23.60;99.90;;;;;;5046524;28;20125;-79
2023/06/25 05:38:00;;;;;;;6.88;6.15;;;24.60;99.90;;;;;;5049900;28;20029;-78
2023/06/25 05:40:27;;;;;;;6.60;5.90;;;24.60;99.90;;;;;;5049705;28;20371;-78
2023/06/25 05:42:54;;;;;;;7.15;5.93;;;24.10;99.90;;;;;;5048973;28;20040;-78
2023/06/25 05:45:21;;;;;;;7.95;6.20;;;23.00;99.90;;;;;;5049160;28;20060;-77
2023/06/25 05:47:47;;;;;;;9.82;6.10;;;22.90;99.90;;;;;;5044277;28;20044;-78
2023/06/25 05:50:13;;;;;;;7.32;6.18;;;23.20;99.90;;;;;;5048368;28;20033;-78
2023/06/25 05:52:42;;;;;;;7.70;5.95;;;23.70;99.90;;;;;;5046918;28;20056;-79
2023/06/25 05:55:08;;;;;;;5.70;5.10;;;24.30;99.90;;;;;;5047322;28;20028;-80
2023/06/25 05:57:35;;;;;;;7.90;6.00;;;25.70;99.90;;;;;;5047201;28;20040;-77
2023/06/25 06:00:04;;;;;;;7.95;5.47;;;25.70;99.90;;;;;;5032180;28;20060;-78
2023/06/25 06:02:39;;;;;;;5.75;5.15;;;26.00;99.90;;;;;;5053401;28;20048;-79
2023/06/25 06:05:06;;;;;;;8.10;5.30;;;25.70;99.90;;;;;;5045088;28;20052;-79
2023/06/25 06:07:33;;;;;;;8.00;6.13;;;25.60;99.90;;;;;;5047713;28;20052;-78
2023/06/25 06:09:59;;;;;;;6.68;5.28;;;25.60;99.90;;;;;;5059170;28;20048;-78
2023/06/25 06:12:26;;;;;;;5.53;4.97;;;25.70;99.90;;;;;;5049651;28;20025;-78
2023/06/25 06:14:52;;;;;;;6.22;4.78;;;26.50;99.90;;;;;;5046941;28;20037;-77
2023/06/25 06:17:18;;;;;;;5.50;4.68;;;26.20;99.90;;;;;;5044039;28;20037;-78
2023/06/25 06:19:44;;;;;;;5.68;5.18;;;25.80;99.90;;;;;;5031300;28;20040;-77
2023/06/25 06:22:10;;;;;;;6.22;5.05;;;26.20;99.90;;;;;;5045922;28;20571;-78
2023/06/25 06:24:37;;;;;;;4.55;4.10;;;26.70;99.90;;;;;;5047289;28;20396;-78
2023/06/25 06:27:03;;;;;;;7.60;4.55;;;27.20;99.90;;;;;;5049011;28;20464;-78
2023/06/25 06:29:29;;;;;;;6.35;4.55;;;26.60;99.90;;;;;;5047719;28;20037;-77
2023/06/25 06:31:55;;;;;;;4.63;3.53;;;27.30;99.90;;;;;;5048659;28;20033;-77
2023/06/25 06:34:21;;;;;;;5.50;4.53;;;28.60;99.90;;;;;;5047328;28;20475;-77
2023/06/25 06:36:47;;;;;;;4.85;4.32;;;28.20;99.90;;;;;;5049964;28;20032;-79
2023/06/25 06:39:17;;;;;;;6.47;4.15;;;27.90;99.90;;;;;;5047693;28;20029;-78
2023/06/25 06:41:43;;;;;;;4.40;3.53;;;29.00;99.90;;;;;;5047377;28;20036;-79
2023/06/25 06:44:12;;;;;;;6.20;4.15;;;29.40;99.90;;;;;;5045440;28;20041;-81
2023/06/25 06:46:38;;;;;;;;;;;29.70;99.90;;;;;;5045476;28;20033;-79
2023/06/25 06:49:05;;;;;;;4.72;3.72;;;29.60;98.60;;;;;;5047938;28;20367;-78
2023/06/25 06:51:31;;;;;;;4.93;3.78;;;29.20;99.90;;;;;;5049116;28;20033;-79
2023/06/25 06:53:58;;;;;;;5.03;3.63;;;29.40;99.90;;;;;;5061478;28;20056;-76
2023/06/25 06:56:24;;;;;;;5.45;4.50;;;30.60;81.20;;;;;;5047936;28;20032;-78
2023/06/25 06:58:50;;;;;;;4.60;4.18;;;29.70;85.80;;;;;;5062529;28;20484;-78
2023/06/25 07:01:16;;;;;;;4.72;4.07;;;28.60;95.20;;;;;;5044983;28;20033;-78
2023/06/25 07:03:42;;;;;;;5.15;4.38;;;28.20;99.90;;;;;;5045626;28;20041;-78
2023/06/25 07:06:09;;;;;;;4.35;3.30;;;30.30;78.00;;;;;;5044941;28;20361;-78
2023/06/25 07:08:35;;;;;;;5.38;4.30;;;32.00;32.60;;;;;;5029913;28;20029;-78
2023/06/25 07:11:02;;;;;;;5.35;3.92;;;33.30;19.20;;;;;;5047860;28;20045;-77
2023/06/25 07:13:30;;;;;;;4.38;3.97;;;32.90;8.90;;;;;;5045934;28;20038;-78
2023/06/25 07:15:56;;;;;;;5.68;3.80;;;31.30;18.80;;;;;;5033487;28;20037;-78
2023/06/25 07:18:22;;;;;;;4.35;3.85;;;29.40;42.60;;;;;;5067041;28;20040;-78
2023/06/25 07:20:48;;;;;;;5.68;4.15;;;28.50;73.40;;;;;;5053210;28;20510;-78
2023/06/25 07:23:14;;;;;;;5.20;4.05;;;30.70;47.80;;;;;;5052472;28;20037;-77
2023/06/25 07:25:41;;;;;;;5.07;4.57;;;31.80;21.60;;;;;;5035262;28;20376;-79
2023/06/25 07:28:10;;;;;;;5.57;4.38;;;31.10;19.00;;;;;;5050244;28;20443;-80
2023/06/25 07:30:38;;;;;;;5.35;4.25;;;31.70;10.20;;;;;;5052611;28;20036;-79
2023/06/25 07:33:04;;;;;;;5.18;4.50;;;30.60;14.20;;;;;;5051976;28;20048;-80
2023/06/25 07:35:31;;;;;;;5.15;3.83;;;30.80;25.60;;;;;;5043788;28;20044;-78
2023/06/25 07:37:57;;;;;;;5.13;3.90;;;32.50;1.00;;;;;;5055474;28;20044;-76
2023/06/25 07:40:23;;;;;;;3.75;3.38;;;32.80;1.00;;;;;;5046225;28;20041;-76
2023/06/25 07:42:49;;;;;;;5.03;3.65;;;32.10;1.00;;;;;;5053119;28;20033;-78
2023/06/25 07:45:18;;;;;;;4.60;3.63;;;32.10;1.00;;;;;;5048076;28;20037;-78
2023/06/25 07:47:45;;;;;;;5.10;3.55;;;32.80;1.00;;;;;;5050755;28;20029;-78
2023/06/25 07:50:11;;;;;;;4.78;3.25;;;33.40;1.00;;;;;;5051308;28;20052;-78
2023/06/25 07:52:37;;;;;;;5.82;4.15;;;34.20;1.00;;;;;;5049929;28;20026;-80
2023/06/25 07:55:03;;;;;;;5.20;3.80;;;34.30;1.00;;;;;;5045821;28;20350;-78
2023/06/25 07:57:29;;;;;;;4.38;3.63;;;34.30;1.00;;;;;;5046307;28;20025;-79
2023/06/25 07:59:56;;;;;;;6.43;4.35;;;34.80;1.00;;;;;;5054362;28;20456;-79
2023/06/25 08:02:22;;;;;;;4.18;3.63;;;34.80;1.00;;;;;;5065516;28;20048;-78
2023/06/25 08:04:49;;;;;;;4.10;3.70;;;33.60;1.00;;;;;;5045503;28;20574;-79
2023/06/25 08:07:15;;;;;;;3.85;3.35;;;33.80;1.00;;;;;;5054157;28;20033;-79
2023/06/25 08:09:43;;;;;;;4.93;3.65;;;34.10;1.00;;;;;;5048560;28;20061;-79
2023/06/25 08:12:10;;;;;;;4.65;3.70;;;33.70;1.00;;;;;;5051020;28;20041;-87
2023/06/25 08:14:36;;;;;;;4.20;3.35;;;33.60;1.00;;;;;;5046283;28;20060;-80
2023/06/25 08:17:02;;;;;;;6.65;4.28;;;33.00;1.00;;;;;;5048441;28;20033;-79
2023/06/25 08:19:28;;;;;;;4.65;3.97;;;32.50;1.00;;;;;;5050437;28;20033;-79
2023/06/25 08:21:54;;;;;;;4.97;3.80;;;32.40;1.00;;;;;;5051454;28;20029;-79
2023/06/25 08:24:21;;;;;;;6.25;4.47;;;32.40;1.00;;;;;;5044071;28;20037;-83
2023/06/25 08:26:47;;;;;;;4.88;4.22;;;31.20;1.00;;;;;;5049272;28;20395;-79
2023/06/25 08:29:13;;;;;;;4.40;3.92;;;31.90;1.00;;;;;;5050478;28;20029;-78
2023/06/25 08:31:39;;;;;;;4.72;3.97;;;32.40;1.00;;;;;;5050246;28;20040;-79
2023/06/25 08:34:05;;;;;;;4.53;3.92;;;33.30;1.00;;;;;;5046631;28;20063;-79
2023/06/25 08:36:31;;;;;;;5.90;4.28;;;34.30;1.00;;;;;;5049873;28;20048;-80
2023/06/25 08:38:57;;;;;;;5.80;3.78;;;34.00;1.00;;;;;;5048957;28;20029;-79
2023/06/25 08:41:23;;;;;;;5.60;3.88;;;34.50;1.00;;;;;;5051283;28;20033;-80
2023/06/25 08:43:50;;;;;;;6.32;3.83;;;34.40;1.00;;;;;;5046474;28;20041;-78
2023/06/25 08:46:16;;;;;;;4.53;3.65;;;35.10;1.00;;;;;;5048425;28;20040;-80
2023/06/25 08:48:46;;;;;;;5.75;4.10;;;35.10;1.00;;;;;;5049603;28;20460;-79
2023/06/25 08:51:22;;;;;;;5.43;4.20;;;35.30;1.00;;;;;;5050149;28;20044;-83
2023/06/25 08:53:49;;;;;;;5.18;4.15;;;34.10;1.00;;;;;;5049786;28;20056;-79
2023/06/25 08:56:19;;;;;;;5.70;4.13;;;34.70;1.00;;;;;;5050543;28;20024;-80
2023/06/25 08:58:45;;;;;;;4.88;4.13;;;34.90;1.00;;;;;;5032025;28;20045;-79
2023/06/25 09:01:14;;;;;;;5.03;3.63;;;34.80;1.00;;;;;;5032305;28;20423;-87
2023/06/25 09:03:41;;;;;;;5.13;4.30;;;35.00;1.00;;;;;;5051293;28;20041;-78
2023/06/25 09:06:15;;;;;;;5.90;4.40;;;35.50;1.00;;;;;;5047365;28;20036;-79
2023/06/25 09:08:42;;;;;;;4.32;3.70;;;35.20;1.00;;;;;;5044728;28;20029;-80
2023/06/25 09:11:09;;;;;;;6.35;3.92;;;34.80;1.00;;;;;;5051743;28;20041;-81
2023/06/25 09:13:37;;;;;;;4.75;3.80;;;34.90;1.00;;;;;;5045956;28;20041;-80
2023/06/25 09:16:06;;;;;;;6.43;4.23;;;33.70;1.00;;;;;;5048458;28;20033;-79
2023/06/25 09:18:33;;;;;;;4.75;3.88;;;30.70;1.00;;;;;;5048929;28;20032;-79
2023/06/25 09:21:04;;;;;;;7.60;4.25;;;30.30;1.00;;;;;;5049905;28;20033;-79
2023/06/25 09:23:31;;;;;;;6.22;3.72;;;30.20;1.00;;;;;;5046593;28;20036;-79
2023/06/25 09:25:57;;;;;;;4.68;3.78;;;31.30;1.00;;;;;;5044152;28;20034;-79
2023/06/25 09:28:24;;;;;;;4.32;3.70;;;31.20;1.00;;;;;;5046767;28;20026;-79
2023/06/25 09:30:57;;;;;;;4.47;3.60;;;31.70;1.00;;;;;;5048273;28;20029;-79
2023/06/25 09:33:30;;;;;;;4.32;3.75;;;32.20;1.00;;;;;;5049302;28;20041;-81
2023/06/25 09:36:01;;;;;;;5.03;3.67;;;32.40;1.00;;;;;;5038825;28;20400;-81
2023/06/25 09:38:27;;;;;;;5.53;4.00;;;32.30;1.00;;;;;;5047436;28;20036;-82
2023/06/25 09:40:55;;;;;;;5.03;3.85;;;32.30;1.00;;;;;;5044021;28;20040;-79
2023/06/25 09:43:21;;;;;;;4.97;3.63;;;32.70;1.00;;;;;;5049267;28;20037;-81
2023/06/25 09:45:47;;;;;;;4.82;3.42;;;33.00;1.00;;;;;;5043813;28;20037;-83
2023/06/25 09:48:16;;;;;;;4.00;3.50;;;32.70;1.00;;;;;;5043759;28;20036;-79
2023/06/25 09:50:44;;;;;;;6.05;3.45;;;32.60;1.00;;;;;;5044567;28;20052;-78
2023/06/25 09:53:20;;;;;;;3.88;3.20;;;32.80;1.00;;;;;;5044330;28;20426;-79
2023/06/25 09:55:46;;;;;;;5.45;3.60;;;34.00;1.00;;;;;;5043662;28;20045;-79
2023/06/25 09:58:14;;;;;;;5.65;3.63;;;34.40;1.00;;;;;;5049943;28;20037;-87
2023/06/25 10:00:43;;;;;;;4.55;3.63;;;33.30;1.00;;;;;;5046802;28;20029;-78
2023/06/25 10:03:10;;;;;;;;;;;33.60;1.00;;;;;;5049576;28;20029;-77
2023/06/25 10:05:37;;;;;;;4.10;3.28;;;34.00;1.00;;;;;;5047313;28;19920;-79
2023/06/25 10:08:04;;;;;;;4.15;3.72;;;34.10;1.00;;;;;;5048942;28;20037;-78
2023/06/25 10:10:31;;;;;;;4.57;3.40;;;34.30;1.00;;;;;;5047921;28;20048;-79
2023/06/25 10:13:01;;;;;;;5.20;4.30;;;33.30;1.00;;;;;;5045704;28;20025;-81
2023/06/25 10:15:33;;;;;;;3.72;3.17;;;32.20;1.00;;;;;;5026746;28;20037;-75
2023/06/25 10:18:01;;;;;;;4.90;3.53;;;31.60;1.00;;;;;;5046201;28;20141;-79
2023/06/25 10:20:35;;;;;;;3.40;3.03;;;31.30;1.00;;;;;;5048430;28;20036;-79
2023/06/25 10:23:08;;;;;;;5.57;3.38;;;31.50;1.00;;;;;;5034185;28;20502;-80
2023/06/25 10:25:36;;;;;;;4.70;3.20;;;31.70;1.00;;;;;;5049961;28;20225;-81
2023/06/25 10:28:07;;;;;;;4.00;2.85;;;31.50;1.00;;;;;;5045816;28;20044;-76
2023/06/25 10:30:38;;;;;;;3.58;2.83;;;30.90;1.00;;;;;;5048009;28;20025;-80
2023/06/25 10:33:05;;;;;;;7.05;3.60;;;30.60;1.00;;;;;;5064773;28;20040;-80
2023/06/25 10:35:56;;;;;;;4.13;3.08;;;30.70;1.00;;;;;;5043927;28;20060;-79
2023/06/25 10:38:24;;;;;;;5.15;3.60;;;30.90;1.00;;;;;;5038037;28;20041;-81
2023/06/25 10:40:50;;;;;;;3.65;2.92;;;30.60;1.00;;;;;;5026719;28;20053;-78
2023/06/25 10:43:20;;;;;;;3.90;2.83;;;30.70;1.00;;;;;;5045933;28;20036;-82
2023/06/25 10:45:50;;;;;;;4.75;3.40;;;30.20;1.00;;;;;;5043776;28;20033;-79
2023/06/25 10:48:17;;;;;;;4.82;3.20;;;30.30;1.00;;;;;;5047997;28;20044;-81
2023/06/25 10:50:46;;;;;;;4.45;3.30;;;30.20;1.00;;;;;;5018649;28;20041;-78
2023/06/25 10:53:16;;;;;;;8.02;3.33;;;29.90;1.00;;;;;;5042885;28;20041;-78
2023/06/25 10:55:48;;;;;;;4.82;3.72;;;30.10;1.00;;;;;;5043430;28;20037;-81
2023/06/25 10:58:16;;;;;;;5.20;3.33;;;30.20;1.00;;;;;;5029074;28;20037;-81
2023/06/25 11:00:43;;;;;;;4.57;3.22;;;30.20;1.00;;;;;;5046969;28;20044;-83
2023/06/25 11:03:10;;;;;;;4.53;2.60;;;30.50;1.00;;;;;;5032398;28;20040;-78
2023/06/25 11:05:45;;;;;;;3.92;2.67;;;30.80;1.00;;;;;;5042926;28;20029;-80
2023/06/25 11:08:13;;;;;;;4.25;3.03;;;31.00;1.00;;;;;;5045636;28;20029;-78
2023/06/25 11:10:40;;;;;;;3.28;2.97;;;31.00;1.00;;;;;;5049070;28;20056;-77
2023/06/25 11:13:13;;;;;;;4.57;3.35;;;31.10;1.00;;;;;;5047618;28;20029;-79
2023/06/25 11:15:42;;;;;;;6.15;3.22;;;30.20;1.00;;;;;;5049461;28;20029;-79
2023/06/25 11:18:09;;;;;;;5.03;2.72;;;30.30;1.00;;;;;;5044232;28;20045;-79
2023/06/25 11:20:38;;;;;;;4.60;3.40;;;30.70;1.00;;;;;;5047241;28;20036;-81
2023/06/25 11:23:05;;;;;;;;;;;30.70;1.00;;;;;;5048053;28;20460;-78
2023/06/25 11:25:31;;;;;;;4.55;3.40;;;30.80;1.00;;;;;;5042087;28;19913;-78
2023/06/25 11:28:04;;;;;;;5.65;3.40;;;30.70;1.00;;;;;;5045884;28;20040;-77
2023/06/25 11:30:30;;;;;;;6.63;3.53;;;31.00;1.00;;;;;;5048493;28;20033;-81
2023/06/25 11:33:11;;;;;;;4.65;3.55;;;30.70;1.00;;;;;;5045423;28;20480;-81
2023/06/25 11:35:38;;;;;;;5.15;3.58;;;30.50;1.00;;;;;;5043502;28;20036;-78
2023/06/25 11:38:05;;;;;;;5.70;2.85;;;30.00;1.00;;;;;;5046898;28;20033;-80
2023/06/25 11:40:33;;;;;;;4.40;3.40;;;30.00;1.00;;;;;;5045109;28;20045;-82
2023/06/25 11:43:00;;;;;;;4.07;3.47;;;30.20;1.00;;;;;;5048356;28;20029;-81
2023/06/25 11:45:26;;;;;;;4.97;3.40;;;30.20;1.00;;;;;;5051616;28;20040;-80
2023/06/25 11:47:53;;;;;;;4.13;3.40;;;30.10;1.00;;;;;;5062710;28;20037;-80
2023/06/25 11:50:24;;;;;;;5.03;3.17;;;30.20;1.00;;;;;;5063777;28;20045;-83
2023/06/25 11:52:55;;;;;;;4.18;3.45;;;30.20;1.00;;;;;;5066134;28;20041;-82
2023/06/25 11:55:21;;;;;;;4.95;3.17;;;30.30;1.00;;;;;;5039415;28;20563;-82
2023/06/25 11:57:48;;;;;;;5.35;3.70;;;30.00;1.00;;;;;;5063684;28;20041;-81
2023/06/25 12:00:15;;;;;;;4.30;3.42;;;29.90;1.00;;;;;;5047688;28;20037;-80
2023/06/25 12:02:41;;;;;;;4.97;4.13;;;30.20;1.00;;;;;;5052881;28;20033;-81
2023/06/25 12:05:07;;;;;;;4.03;2.95;;;30.60;1.00;;;;;;5047219;28;20044;-79
2023/06/25 12:07:34;;;;;;;6.22;3.88;;;30.80;1.00;;;;;;5053119;28;20408;-79
2023/06/25 12:10:00;;;;;;;5.65;3.58;;;30.60;1.00;;;;;;5045762;28;20104;-79
2023/06/25 12:12:26;;;;;;;6.60;3.45;;;30.70;1.00;;;;;;5046678;28;20044;-79
2023/06/25 12:14:52;;;;;;;5.68;4.15;;;30.50;1.00;;;;;;5047173;28;20044;-75
2023/06/25 12:17:18;;;;;;;5.30;4.35;;;30.40;1.00;;;;;;5065553;28;20028;-79
2023/06/25 12:19:45;;;;;;;5.35;3.65;;;30.10;1.00;;;;;;5051500;28;20024;-80
2023/06/25 12:22:11;;;;;;;3.63;2.80;;;30.30;1.00;;;;;;5050391;28;20396;-79
2023/06/25 12:24:38;;;;;;;3.85;2.97;;;30.30;1.00;;;;;;5053039;28;20047;-78
2023/06/25 12:27:04;;;;;;;3.67;3.08;;;30.30;1.00;;;;;;5043575;28;20025;-79
2023/06/25 12:29:31;;;;;;;7.35;3.55;;;30.50;1.00;;;;;;5047870;28;20064;-77
2023/06/25 12:31:58;;;;;;;4.43;3.40;;;30.30;1.00;;;;;;5054215;28;20411;-80
2023/06/25 12:34:24;;;;;;;5.25;3.25;;;30.20;1.00;;;;;;5051809;28;20040;-78
2023/06/25 12:36:50;;;;;;;4.50;3.55;;;29.90;1.00;;;;;;5050169;28;20025;-77
2023/06/25 12:39:16;;;;;;;4.28;3.53;;;30.20;1.00;;;;;;5047745;28;20059;-78
2023/06/25 12:41:43;;;;;;;6.82;3.10;;;30.50;1.00;;;;;;5051553;28;20044;-78
2023/06/25 12:44:09;;;;;;;4.68;3.03;;;30.80;1.00;;;;;;5051448;28;20053;-78
2023/06/25 12:46:35;;;;;;;3.50;3.05;;;31.10;1.00;;;;;;5051485;28;20460;-80
2023/06/25 12:49:01;;;;;;;4.15;3.13;;;31.30;1.00;;;;;;5036370;28;20034;-77
2023/06/25 12:51:27;;;;;;;3.95;3.17;;;31.70;1.00;;;;;;5034817;28;20029;-78
2023/06/25 12:53:53;;;;;;;7.40;3.20;;;32.00;1.00;;;;;;5050177;28;20468;-84